createdAt,value
2018-05-23T00:01:09.349Z,101123.49
2018-05-23T00:03:37.012Z,101120.91
2018-05-23T00:06:04.626Z,101117.93
2018-05-23T00:08:32.277Z,101122.80
2018-05-23T00:10:59.912Z,101124.09
2018-05-23T00:13:27.513Z,101121.38
2018-05-23T00:15:55.177Z,101128.86
2018-05-23T00:18:22.772Z,101124.47
2018-05-23T00:20:50.421Z,101126.72
2018-05-23T00:23:18.033Z,101125.73
2018-05-23T00:25:45.696Z,101127.44
2018-05-23T00:28:13.337Z,101125.11
2018-05-23T00:30:40.982Z,101128.95
2018-05-23T00:33:08.585Z,101133.25
2018-05-23T00:35:36.223Z,101138.53
2018-05-23T00:38:03.929Z,101139.27
2018-05-23T00:40:31.578Z,101131.32
2018-05-23T00:42:59.181Z,101128.25
2018-05-23T00:45:26.840Z,101123.91
2018-05-23T00:47:54.446Z,101126.00
2018-05-23T00:50:22.300Z,101125.88
2018-05-23T00:52:50.005Z,101119.78
2018-05-23T00:55:29.169Z,101127.69
2018-05-23T00:57:56.768Z,101127.69
2018-05-23T01:00:24.429Z,101128.09
2018-05-23T01:02:52.056Z,101125.53
2018-05-23T01:05:19.739Z,101130.00
2018-05-23T01:07:47.372Z,101134.97
2018-05-23T01:10:15.013Z,101134.50
2018-05-23T01:12:42.653Z,101134.07
2018-05-23T01:15:10.271Z,101124.44
2018-05-23T01:17:37.909Z,101124.93
2018-05-23T01:20:05.512Z,101122.24
2018-05-23T01:22:33.154Z,101132.59
2018-05-23T01:25:00.758Z,101129.50
2018-05-23T01:27:28.436Z,101129.53
2018-05-23T01:29:56.076Z,101132.57
2018-05-23T01:32:23.765Z,101128.53
2018-05-23T01:34:51.398Z,101132.53
2018-05-23T01:37:19.128Z,101129.09
2018-05-23T01:39:46.785Z,101132.19
2018-05-23T01:42:14.451Z,101124.38
2018-05-23T01:44:42.122Z,101125.66
2018-05-23T01:47:09.719Z,101122.66
2018-05-23T01:49:37.369Z,101123.09
2018-05-23T01:52:04.986Z,101125.34
2018-05-23T01:54:32.745Z,101124.05
2018-05-23T01:57:00.348Z,101132.44
2018-05-23T01:59:27.990Z,101130.91
2018-05-23T02:01:55.639Z,101136.48
2018-05-23T02:04:23.265Z,101136.07
2018-05-23T02:06:50.873Z,101130.91
2018-05-23T02:09:18.506Z,101134.35
2018-05-23T02:11:46.116Z,101135.78
2018-05-23T02:14:13.748Z,101143.02
2018-05-23T02:16:41.378Z,101144.30
2018-05-23T02:19:09.008Z,101141.92
2018-05-23T02:21:36.697Z,101145.28
2018-05-23T02:24:04.328Z,101140.14
2018-05-23T02:26:31.924Z,101142.11
2018-05-23T02:28:59.561Z,101139.41
2018-05-23T02:31:27.166Z,101139.88
2018-05-23T02:33:54.846Z,101140.98
2018-05-23T02:36:22.459Z,101139.44
2018-05-23T02:38:50.074Z,101141.87
2018-05-23T02:41:17.808Z,101136.87
2018-05-23T02:43:45.450Z,101136.87
2018-05-23T02:46:18.522Z,101133.77
2018-05-23T02:48:46.139Z,101136.11
2018-05-23T02:51:13.930Z,101134.36
2018-05-23T02:53:41.509Z,101142.35
2018-05-23T02:56:09.163Z,101142.99
2018-05-23T02:58:36.770Z,101138.58
2018-05-23T03:01:04.397Z,101143.82
2018-05-23T03:03:32.029Z,101148.95
2018-05-23T03:05:59.687Z,101152.45
2018-05-23T03:08:27.297Z,101146.37
2018-05-23T03:10:54.941Z,101149.98
2018-05-23T03:13:22.609Z,101146.64
2018-05-23T03:15:50.269Z,101152.81
2018-05-23T03:18:17.869Z,101159.77
2018-05-23T03:20:45.597Z,101163.30
2018-05-23T03:23:13.207Z,101160.76
2018-05-23T03:25:40.852Z,101159.52
2018-05-23T03:28:08.489Z,101158.94
2018-05-23T03:30:36.145Z,101160.33
2018-05-23T03:33:03.764Z,101165.89
2018-05-23T03:35:31.373Z,101166.72
2018-05-23T03:37:59.005Z,101167.64
2018-05-23T03:40:26.629Z,101169.23
2018-05-23T03:42:54.296Z,101170.18
2018-05-23T03:45:21.901Z,101170.74
2018-05-23T03:47:49.542Z,101174.80
2018-05-23T03:50:17.140Z,101177.94
2018-05-23T03:52:44.822Z,101172.77
2018-05-23T03:55:12.465Z,101173.75
2018-05-23T03:57:40.212Z,101167.23
2018-05-23T04:00:19.355Z,101169.53
2018-05-23T04:02:58.680Z,101175.33
2018-05-23T04:05:37.962Z,101178.53
2018-05-23T04:08:07.378Z,101174.96
2018-05-23T04:10:34.968Z,101174.12
2018-05-23T04:13:02.620Z,101178.86
2018-05-23T04:15:30.277Z,101181.93
2018-05-23T04:17:57.876Z,101182.77
2018-05-23T04:20:25.469Z,101188.93
2018-05-23T04:22:53.110Z,101183.72
2018-05-23T04:25:20.729Z,101187.62
2018-05-23T04:27:48.389Z,101188.78
2018-05-23T04:30:16.081Z,101192.37
2018-05-23T04:32:43.716Z,101202.43
2018-05-23T04:35:11.336Z,101206.95
2018-05-23T04:37:38.984Z,101206.08
2018-05-23T04:40:06.612Z,101210.58
2018-05-23T04:42:34.363Z,101208.39
2018-05-23T04:45:01.970Z,101214.87
2018-05-23T04:47:29.620Z,101213.25
2018-05-23T04:49:57.283Z,101219.05
2018-05-23T04:52:24.908Z,101218.38
2018-05-23T04:54:52.541Z,101220.72
2018-05-23T04:57:20.146Z,101224.81
2018-05-23T04:59:47.782Z,101228.32
2018-05-23T05:02:15.397Z,101232.69
2018-05-23T05:04:43.063Z,101230.69
2018-05-23T05:07:10.677Z,101232.84
2018-05-23T05:09:38.351Z,101232.02
2018-05-23T05:12:05.969Z,101239.31
2018-05-23T05:14:33.598Z,101244.05
2018-05-23T05:17:01.218Z,101240.80
2018-05-23T05:19:29.334Z,101240.61
2018-05-23T05:21:56.965Z,101243.80
2018-05-23T05:24:24.636Z,101255.69
2018-05-23T05:26:52.274Z,101259.98
2018-05-23T05:29:19.928Z,101261.17
2018-05-23T05:31:47.541Z,101269.40
2018-05-23T05:34:15.149Z,101275.88
2018-05-23T05:36:42.783Z,101278.77
2018-05-23T05:39:10.518Z,101287.23
2018-05-23T05:41:38.075Z,101294.23
2018-05-23T05:44:05.689Z,101291.17
2018-05-23T05:46:33.324Z,101298.16
2018-05-23T05:49:00.948Z,101300.88
2018-05-23T05:51:28.585Z,101300.89
2018-05-23T05:53:56.192Z,101305.44
2018-05-23T05:56:23.939Z,101307.36
2018-05-23T05:58:51.541Z,101321.33
2018-05-23T06:01:19.359Z,101324.95
2018-05-23T06:03:47.042Z,101327.97
2018-05-23T06:06:14.799Z,101329.38
2018-05-23T06:08:42.437Z,101326.53
2018-05-23T06:11:10.079Z,101324.87
2018-05-23T06:13:37.783Z,101331.64
2018-05-23T06:16:05.400Z,101333.23
2018-05-23T06:18:33.790Z,101332.13
2018-05-23T06:21:01.415Z,101331.84
2018-05-23T06:23:29.080Z,101332.39
2018-05-23T06:25:56.685Z,101332.06
2018-05-23T06:28:24.329Z,101333.05
2018-05-23T06:30:51.944Z,101330.53
2018-05-23T06:33:19.596Z,101334.44
2018-05-23T06:35:47.240Z,101338.82
2018-05-23T06:38:14.889Z,101339.08
2018-05-23T06:40:42.560Z,101345.61
2018-05-23T06:43:10.202Z,101344.48
2018-05-23T06:45:37.826Z,101346.41
2018-05-23T06:48:05.595Z,101347.29
2018-05-23T06:50:33.256Z,101344.16
2018-05-23T06:53:00.860Z,101346.02
2018-05-23T06:55:28.555Z,101345.17
2018-05-23T06:57:56.240Z,101352.72
2018-05-23T07:00:24.083Z,101358.09
2018-05-23T07:02:51.706Z,101360.21
2018-05-23T07:05:19.426Z,101361.23
2018-05-23T07:07:47.076Z,101365.27
2018-05-23T07:10:14.717Z,101361.42
2018-05-23T07:12:42.394Z,101366.25
2018-05-23T07:15:10.024Z,101365.06
2018-05-23T07:17:37.616Z,101367.16
2018-05-23T07:20:05.267Z,101365.26
2018-05-23T07:22:32.883Z,101368.48
2018-05-23T07:25:00.589Z,101367.35
2018-05-23T07:27:28.192Z,101371.08
2018-05-23T07:29:56.068Z,101371.17
2018-05-23T07:32:23.672Z,101377.11
2018-05-23T07:34:51.377Z,101376.67
2018-05-23T07:37:18.965Z,101374.17
2018-05-23T07:39:46.624Z,101374.23
2018-05-23T07:42:14.226Z,101376.12
2018-05-23T07:44:41.889Z,101372.25
2018-05-23T07:47:09.734Z,101379.88
2018-05-23T07:49:37.332Z,101384.25
2018-05-23T07:52:04.972Z,101376.98
2018-05-23T07:54:32.658Z,101374.84
2018-05-23T07:57:00.304Z,101379.91
2018-05-23T07:59:27.915Z,101376.93
2018-05-23T08:01:55.566Z,101371.75
2018-05-23T08:04:23.196Z,101375.45
2018-05-23T08:06:50.857Z,101377.21
2018-05-23T08:09:18.471Z,101383.26
2018-05-23T08:11:46.135Z,101383.69
2018-05-23T08:14:13.760Z,101380.30
2018-05-23T08:16:41.437Z,101390.03
2018-05-23T08:19:09.084Z,101390.91
2018-05-23T08:21:36.736Z,101392.72
2018-05-23T08:24:04.389Z,101390.25
2018-05-23T08:26:32.006Z,101394.77
2018-05-23T08:28:59.657Z,101393.52
2018-05-23T08:31:27.281Z,101391.41
2018-05-23T08:33:54.933Z,101392.81
2018-05-23T08:36:22.590Z,101392.39
2018-05-23T08:38:50.195Z,101391.53
2018-05-23T08:41:17.800Z,101393.58
2018-05-23T08:43:45.437Z,101401.16
2018-05-23T08:46:13.060Z,101398.96
2018-05-23T08:48:40.713Z,101397.70
2018-05-23T08:51:08.304Z,101398.72
2018-05-23T08:53:35.910Z,101393.94
2018-05-23T08:56:03.556Z,101401.92
2018-05-23T08:58:31.193Z,101403.24
2018-05-23T09:00:58.873Z,101401.94
2018-05-23T09:03:26.471Z,101401.53
2018-05-23T09:05:54.119Z,101400.70
2018-05-23T09:08:21.760Z,101402.03
2018-05-23T09:10:49.404Z,101406.36
2018-05-23T09:13:17.024Z,101407.71
2018-05-23T09:15:44.656Z,101405.06
2018-05-23T09:18:12.255Z,101405.06
2018-05-23T09:20:39.880Z,101409.91
2018-05-23T09:23:07.495Z,101414.38
2018-05-23T09:25:35.153Z,101415.23
2018-05-23T09:28:02.750Z,101417.91
2018-05-23T09:30:30.362Z,101418.35
2018-05-23T09:32:58.027Z,101417.05
2018-05-23T09:35:25.624Z,101420.56
2018-05-23T09:37:53.280Z,101417.88
2018-05-23T09:40:20.902Z,101425.36
2018-05-23T09:42:48.520Z,101430.23
2018-05-23T09:45:16.214Z,101433.73
2018-05-23T09:47:43.777Z,101432.90
2018-05-23T09:50:11.404Z,101433.25
2018-05-23T09:52:39.101Z,101430.49
2018-05-23T09:55:06.751Z,101434.77
2018-05-23T09:57:34.384Z,101432.48
2018-05-23T10:00:02.091Z,101424.54
2018-05-23T10:02:29.760Z,101419.99
2018-05-23T10:04:57.373Z,101429.63
2018-05-23T10:07:25.089Z,101427.02
2018-05-23T10:09:52.703Z,101415.78
2018-05-23T10:12:20.404Z,101425.84
2018-05-23T10:14:48.047Z,101436.59
2018-05-23T10:17:15.647Z,101432.33
2018-05-23T10:19:43.263Z,101439.12
2018-05-23T10:22:10.893Z,101443.12
2018-05-23T10:24:38.530Z,101441.34
2018-05-23T10:27:06.112Z,101449.41
2018-05-23T10:29:33.747Z,101444.87
2018-05-23T10:32:01.348Z,101458.27
2018-05-23T10:34:28.987Z,101464.09
2018-05-23T10:36:56.596Z,101469.48
2018-05-23T10:39:24.329Z,101466.42
2018-05-23T10:41:51.930Z,101476.12
2018-05-23T10:44:19.588Z,101476.45
2018-05-23T10:46:47.225Z,101480.44
2018-05-23T10:49:14.839Z,101487.95
2018-05-23T10:51:42.480Z,101486.17
2018-05-23T10:54:10.108Z,101487.55
2018-05-23T10:56:37.747Z,101493.66
2018-05-23T10:59:05.329Z,101492.33
2018-05-23T11:01:32.976Z,101495.89
2018-05-23T11:04:00.564Z,101498.92
2018-05-23T11:06:28.246Z,101500.25
2018-05-23T11:08:55.906Z,101500.68
2018-05-23T11:11:23.489Z,101507.16
2018-05-23T11:13:51.133Z,101514.69
2018-05-23T11:16:18.743Z,101514.27
2018-05-23T11:18:46.444Z,101512.95
2018-05-23T11:21:14.073Z,101511.68
2018-05-23T11:23:41.672Z,101513.55
2018-05-23T11:26:09.994Z,101516.65
2018-05-23T11:28:37.647Z,101513.16
2018-05-23T11:31:05.296Z,101515.35
2018-05-23T11:33:32.951Z,101516.23
2018-05-23T11:36:00.588Z,101516.69
2018-05-23T11:38:28.180Z,101518.32
2018-05-23T11:40:55.839Z,101516.59
2018-05-23T11:43:23.462Z,101512.25
2018-05-23T11:45:51.189Z,101520.20
2018-05-23T11:50:45.733Z,101515.67
2018-05-23T11:53:13.425Z,101511.04
2018-05-23T11:55:41.056Z,101515.96
2018-05-23T11:58:08.712Z,101511.60
2018-05-23T12:00:36.337Z,101509.42
2018-05-23T12:03:03.964Z,101513.88
2018-05-23T12:05:31.548Z,101509.83
2018-05-23T12:07:59.189Z,101512.88
2018-05-23T12:10:26.800Z,101513.75
2018-05-23T12:12:54.437Z,101509.36
2018-05-23T12:15:22.049Z,101503.13
2018-05-23T12:17:49.700Z,101502.73
2018-05-23T12:20:17.349Z,101499.16
2018-05-23T12:22:44.936Z,101501.02
2018-05-23T12:25:12.720Z,101504.16
2018-05-23T12:27:40.310Z,101505.52
2018-05-23T12:30:07.973Z,101498.94
2018-05-23T12:32:35.570Z,101498.03
2018-05-23T12:35:03.241Z,101504.67
2018-05-23T12:37:30.869Z,101501.58
2018-05-23T12:39:58.769Z,101501.22
2018-05-23T12:42:26.520Z,101493.73
2018-05-23T12:44:54.158Z,101491.97
2018-05-23T12:47:21.752Z,101489.75
2018-05-23T12:49:49.561Z,101486.69
2018-05-23T12:52:17.193Z,101479.20
2018-05-23T12:54:44.792Z,101479.63
2018-05-23T12:57:12.431Z,101478.78
2018-05-23T12:59:40.284Z,101475.26
2018-05-23T13:02:07.912Z,101473.94
2018-05-23T13:04:35.544Z,101473.47
2018-05-23T13:07:03.174Z,101459.78
2018-05-23T13:09:30.782Z,101469.95
2018-05-23T13:11:58.531Z,101469.48
2018-05-23T13:14:26.161Z,101463.75
2018-05-23T13:16:53.796Z,101460.27
2018-05-23T13:19:21.428Z,101454.04
2018-05-23T13:21:49.076Z,101453.16
2018-05-23T13:24:16.682Z,101453.14
2018-05-23T13:26:44.315Z,101450.94
2018-05-23T13:29:11.908Z,101450.49
2018-05-23T13:31:39.541Z,101450.48
2018-05-23T13:34:07.137Z,101446.11
2018-05-23T13:36:34.737Z,101436.86
2018-05-23T13:39:02.467Z,101437.29
2018-05-23T13:41:30.049Z,101435.53
2018-05-23T13:43:57.709Z,101428.86
2018-05-23T13:46:25.321Z,101432.36
2018-05-23T13:48:52.964Z,101418.63
2018-05-23T13:51:20.637Z,101421.33
2018-05-23T13:53:48.285Z,101416.91
2018-05-23T13:56:15.889Z,101407.53
2018-05-23T13:58:43.533Z,101405.27
2018-05-23T14:01:11.142Z,101411.48
2018-05-23T14:03:38.762Z,101403.84
2018-05-23T14:06:06.365Z,101403.28
2018-05-23T14:08:34.023Z,101395.89
2018-05-23T14:11:01.616Z,101398.91
2018-05-23T14:13:29.247Z,101391.93
2018-05-23T14:15:56.859Z,101396.78
2018-05-23T14:18:24.569Z,101392.36
2018-05-23T14:20:52.164Z,101388.30
2018-05-23T14:23:19.766Z,101391.00
2018-05-23T14:25:47.409Z,101389.45
2018-05-23T14:28:15.004Z,101390.11
2018-05-23T14:30:42.647Z,101382.17
2018-05-23T14:33:10.257Z,101385.94
2018-05-23T14:35:37.898Z,101383.06
2018-05-23T14:38:05.484Z,101390.72
2018-05-23T14:40:33.121Z,101376.86
2018-05-23T14:43:00.741Z,101377.44
2018-05-23T14:45:28.465Z,101373.34
2018-05-23T14:47:56.068Z,101379.86
2018-05-23T14:50:23.687Z,101378.78
2018-05-23T14:52:51.306Z,101378.00
2018-05-23T14:55:18.950Z,101380.44
2018-05-23T14:57:46.588Z,101373.81
2018-05-23T15:00:14.298Z,101375.37
2018-05-23T15:02:41.893Z,101373.23
2018-05-23T15:05:09.717Z,101373.15
2018-05-23T15:07:37.317Z,101373.33
2018-05-23T15:10:05.046Z,101367.27
2018-05-23T15:12:32.681Z,101375.81
2018-05-23T15:15:00.284Z,101379.70
2018-05-23T15:17:27.926Z,101380.28
2018-05-23T15:19:55.678Z,101379.73
2018-05-23T15:22:23.182Z,101381.06
2018-05-23T15:24:50.774Z,101379.63
2018-05-23T15:27:18.510Z,101377.09
2018-05-23T15:29:45.987Z,101372.61
2018-05-23T15:32:13.621Z,101370.52
2018-05-23T15:34:41.259Z,101368.16
2018-05-23T15:37:08.938Z,101367.35
2018-05-23T15:39:36.609Z,101364.58
2018-05-23T15:42:04.198Z,101353.01
2018-05-23T15:44:31.877Z,101355.23
2018-05-23T15:46:59.478Z,101355.77
2018-05-23T15:49:27.214Z,101356.79
2018-05-23T15:51:54.836Z,101360.88
2018-05-23T15:54:22.496Z,101357.75
2018-05-23T15:56:50.176Z,101354.88
2018-05-23T15:59:17.745Z,101358.36
2018-05-23T16:01:45.347Z,101360.53
2018-05-23T16:04:12.980Z,101360.34
2018-05-23T16:06:40.577Z,101365.51
2018-05-23T16:09:08.284Z,101360.52
2018-05-23T16:11:35.902Z,101363.13
2018-05-23T16:14:03.522Z,101358.05
2018-05-23T16:16:31.115Z,101362.97
2018-05-23T16:18:58.741Z,101360.15
2018-05-23T16:21:26.356Z,101362.40
2018-05-23T16:23:53.988Z,101361.14
2018-05-23T16:26:21.593Z,101358.55
2018-05-23T16:28:49.256Z,101355.96
2018-05-23T16:31:16.861Z,101357.29
2018-05-23T16:33:44.469Z,101354.70
2018-05-23T16:36:12.110Z,101355.98
2018-05-23T16:38:39.747Z,101351.19
2018-05-23T16:41:07.381Z,101354.79
2018-05-23T16:43:35.004Z,101357.19
2018-05-23T16:46:02.653Z,101354.88
2018-05-23T16:48:30.293Z,101354.03
2018-05-23T16:50:57.959Z,101361.36
2018-05-23T16:53:25.564Z,101355.55
2018-05-23T16:55:53.219Z,101350.72
2018-05-23T16:58:20.827Z,101348.09
2018-05-23T17:00:48.481Z,101354.88
2018-05-23T17:03:16.093Z,101352.30
2018-05-23T17:05:43.757Z,101354.96
2018-05-23T17:08:11.606Z,101363.93
2018-05-23T17:10:39.328Z,101365.00
2018-05-23T17:13:06.925Z,101368.17
2018-05-23T17:15:34.573Z,101370.80
2018-05-23T17:18:02.195Z,101373.89
2018-05-23T17:20:29.811Z,101377.88
2018-05-23T17:22:57.458Z,101382.83
2018-05-23T17:25:25.088Z,101383.33
2018-05-23T17:27:52.721Z,101378.51
2018-05-23T17:30:20.351Z,101385.61
2018-05-23T17:32:48.028Z,101379.91
2018-05-23T17:35:15.734Z,101378.09
2018-05-23T17:37:43.371Z,101386.19
2018-05-23T17:40:11.089Z,101380.88
2018-05-23T17:42:38.706Z,101383.05
2018-05-23T17:45:06.320Z,101376.05
2018-05-23T17:47:34.006Z,101373.87
2018-05-23T17:50:01.638Z,101377.79
2018-05-23T17:52:29.342Z,101369.84
2018-05-23T17:54:56.950Z,101371.66
2018-05-23T17:57:24.598Z,101374.29
2018-05-23T17:59:52.205Z,101372.46
2018-05-23T18:02:19.862Z,101365.41
2018-05-23T18:04:47.442Z,101371.55
2018-05-23T18:07:15.077Z,101375.55
2018-05-23T18:09:42.746Z,101378.14
2018-05-23T18:12:10.416Z,101376.36
2018-05-23T18:14:38.056Z,101381.19
2018-05-23T18:17:05.680Z,101378.66
2018-05-23T18:19:33.336Z,101387.11
2018-05-23T18:22:00.952Z,101384.41
2018-05-23T18:24:28.760Z,101385.34
2018-05-23T18:26:56.345Z,101388.45
2018-05-23T18:29:24.116Z,101385.39
2018-05-23T18:31:51.714Z,101391.20
2018-05-23T18:34:19.363Z,101392.63
2018-05-23T18:36:46.998Z,101386.03
2018-05-23T18:39:14.715Z,101388.25
2018-05-23T18:41:42.325Z,101386.52
2018-05-23T18:44:10.061Z,101385.64
2018-05-23T18:46:37.654Z,101387.03
2018-05-23T18:49:05.321Z,101388.41
2018-05-23T18:51:32.941Z,101393.27
2018-05-23T18:54:00.606Z,101398.17
2018-05-23T18:56:28.361Z,101398.66
2018-05-23T18:58:55.992Z,101403.07
2018-05-23T19:01:23.637Z,101407.97
2018-05-23T19:03:51.354Z,101405.78
2018-05-23T19:06:19.074Z,101409.34
2018-05-23T19:08:46.726Z,101411.55
2018-05-23T19:11:14.358Z,101411.59
2018-05-23T19:13:41.988Z,101413.80
2018-05-23T19:16:09.638Z,101413.83
2018-05-23T19:18:37.239Z,101413.42
2018-05-23T19:21:04.889Z,101414.77
2018-05-23T19:23:32.625Z,101421.42
2018-05-23T19:26:00.270Z,101425.39
2018-05-23T19:28:27.897Z,101432.91
2018-05-23T19:30:55.536Z,101431.12
2018-05-23T19:33:23.184Z,101440.37
2018-05-23T19:35:50.822Z,101439.50
2018-05-23T19:38:18.581Z,101439.97
2018-05-23T19:40:46.288Z,101445.67
2018-05-23T19:43:13.918Z,101448.78
2018-05-23T19:45:41.565Z,101447.90
2018-05-23T19:48:09.176Z,101453.65
2018-05-23T19:50:36.902Z,101453.20
2018-05-23T19:53:04.561Z,101456.70
2018-05-23T19:55:32.212Z,101457.16
2018-05-23T19:57:59.835Z,101462.86
2018-05-23T20:00:27.517Z,101465.95
2018-05-23T20:02:55.163Z,101465.95
2018-05-23T20:05:22.811Z,101462.44
2018-05-23T20:07:50.420Z,101476.09
2018-05-23T20:10:18.137Z,101475.63
2018-05-23T20:12:45.750Z,101475.20
2018-05-23T20:15:13.361Z,101477.84
2018-05-23T20:17:41.009Z,101478.68
2018-05-23T20:20:08.610Z,101484.41
2018-05-23T20:22:36.302Z,101483.08
2018-05-23T20:25:03.913Z,101478.67
2018-05-23T20:27:31.750Z,101478.20
2018-05-23T20:29:59.365Z,101476.84
2018-05-23T20:32:26.998Z,101477.30
2018-05-23T20:34:54.620Z,101478.59
2018-05-23T20:37:22.332Z,101477.70
2018-05-23T20:39:49.934Z,101482.55
2018-05-23T20:42:17.577Z,101482.09
2018-05-23T20:44:45.192Z,101484.27
2018-05-23T20:47:12.884Z,101484.27
2018-05-23T20:49:40.589Z,101482.06
2018-05-23T20:52:08.257Z,101490.41
2018-05-23T20:54:35.866Z,101488.61
2018-05-23T20:57:03.492Z,101490.32
2018-05-23T20:59:31.175Z,101493.42
2018-05-23T21:01:58.819Z,101491.62
2018-05-23T21:04:26.444Z,101490.31
2018-05-23T21:06:54.191Z,101493.41
2018-05-23T21:09:21.799Z,101494.72
2018-05-23T21:11:49.485Z,101492.97
2018-05-23T21:14:17.141Z,101496.91
2018-05-23T21:16:44.751Z,101499.97
2018-05-23T21:19:12.420Z,101503.50
2018-05-23T21:21:40.041Z,101508.22
2018-05-23T21:24:07.691Z,101507.78
2018-05-23T21:26:35.396Z,101508.24
2018-05-23T21:29:03.041Z,101511.71
2018-05-23T21:31:30.641Z,101509.50
2018-05-23T21:33:58.280Z,101509.50
2018-05-23T21:36:25.889Z,101510.79
2018-05-23T21:38:53.518Z,101507.30
2018-05-23T21:41:21.121Z,101509.48
2018-05-23T21:43:48.783Z,101513.02
2018-05-23T21:46:16.388Z,101506.40
2018-05-23T21:48:44.136Z,101507.28
2018-05-23T21:51:11.728Z,101507.27
2018-05-23T21:53:39.325Z,101507.21
2018-05-23T21:56:06.948Z,101509.88
2018-05-23T21:58:34.555Z,101507.23
2018-05-23T22:01:02.205Z,101511.15
2018-05-23T22:03:29.823Z,101508.92
2018-05-23T22:05:57.485Z,101513.72
2018-05-23T22:08:25.168Z,101510.15
2018-05-23T22:10:52.814Z,101505.75
2018-05-23T22:13:20.427Z,101505.32
2018-05-23T22:15:48.065Z,101504.89
2018-05-23T22:18:15.749Z,101506.64
2018-05-23T22:20:43.337Z,101506.20
2018-05-23T22:23:11.028Z,101502.23
2018-05-23T22:25:38.784Z,101506.58
2018-05-23T22:28:06.400Z,101501.28
2018-05-23T22:30:34.083Z,101505.64
2018-05-23T22:33:01.656Z,101518.35
2018-05-23T22:35:29.334Z,101508.70
2018-05-23T22:37:56.953Z,101504.13
2018-05-23T22:40:24.622Z,101508.51
2018-05-23T22:42:52.266Z,101511.90
2018-05-23T22:45:19.853Z,101516.71
2018-05-23T22:47:47.497Z,101514.94
2018-05-23T22:50:15.104Z,101520.99
2018-05-23T22:52:42.731Z,101513.89
2018-05-23T22:55:10.324Z,101510.33
2018-05-23T22:57:37.988Z,101517.84
2018-05-23T23:00:05.657Z,101512.09
2018-05-23T23:02:33.376Z,101515.05
2018-05-23T23:05:01.092Z,101525.08
2018-05-23T23:07:28.750Z,101519.64
2018-05-23T23:09:56.361Z,101520.88
2018-05-23T23:12:23.999Z,101528.31
2018-05-23T23:14:51.605Z,101520.13
2018-05-23T23:17:19.223Z,101522.20
2018-05-23T23:19:46.863Z,101521.80
2018-05-23T23:22:26.089Z,101512.52
2018-05-23T23:24:53.686Z,101513.70
2018-05-23T23:27:21.337Z,101515.39
2018-05-23T23:29:48.933Z,101514.61
2018-05-23T23:32:16.599Z,101511.51
2018-05-23T23:34:44.203Z,101513.57
2018-05-23T23:37:11.813Z,101507.33
2018-05-23T23:39:39.442Z,101513.44
2018-05-23T23:42:07.095Z,101506.48
2018-05-23T23:44:34.846Z,101509.56
2018-05-23T23:47:02.385Z,101507.73
2018-05-23T23:49:30.018Z,101507.30
2018-05-23T23:51:57.613Z,101508.61
2018-05-23T23:54:25.327Z,101503.31
2018-05-23T23:56:52.917Z,101500.68
2018-05-23T23:59:20.568Z,101502.36
